createdAt,value
2022-10-31T00:01:15.006Z,99.90
2022-10-31T00:03:41.862Z,99.90
2022-10-31T00:06:08.827Z,99.90
2022-10-31T00:08:35.744Z,99.90
2022-10-31T00:11:02.568Z,99.90
2022-10-31T00:13:29.354Z,99.90
2022-10-31T00:15:56.089Z,99.90
2022-10-31T00:18:22.825Z,99.90
2022-10-31T00:25:43.824Z,99.90
2022-10-31T00:28:12.691Z,99.90
2022-10-31T00:30:39.589Z,99.90
2022-10-31T00:33:06.417Z,99.90
2022-10-31T00:35:33.573Z,99.90
2022-10-31T00:38:00.369Z,99.90
2022-10-31T00:40:27.084Z,99.90
2022-10-31T00:42:54.146Z,99.90
2022-10-31T00:45:20.921Z,99.90
2022-10-31T00:47:47.618Z,99.90
2022-10-31T00:50:14.348Z,99.90
2022-10-31T00:55:08.368Z,99.90
2022-10-31T00:57:35.065Z,99.90
2022-10-31T01:00:01.841Z,99.90
2022-10-31T01:02:28.670Z,99.90
2022-10-31T01:04:55.531Z,99.90
2022-10-31T01:07:22.215Z,99.90
2022-10-31T01:09:49.051Z,99.90
2022-10-31T01:12:15.786Z,99.90
2022-10-31T01:14:46.270Z,99.90
2022-10-31T01:17:14.003Z,99.90
2022-10-31T01:19:40.908Z,99.90
2022-10-31T01:22:07.673Z,99.90
2022-10-31T01:24:34.470Z,99.90
2022-10-31T01:27:01.409Z,99.90
2022-10-31T01:29:28.087Z,99.90
2022-10-31T01:31:54.845Z,99.90
2022-10-31T01:36:52.277Z,99.90
2022-10-31T01:39:22.591Z,99.90
2022-10-31T01:41:52.009Z,99.90
2022-10-31T01:44:18.661Z,99.90
2022-10-31T01:46:59.951Z,99.90
2022-10-31T01:49:35.606Z,99.90
2022-10-31T01:52:09.907Z,99.90
2022-10-31T01:54:44.802Z,99.90
2022-10-31T01:57:15.462Z,99.90
2022-10-31T01:59:49.458Z,99.90
2022-10-31T02:02:19.616Z,99.90
2022-10-31T02:04:48.410Z,99.90
2022-10-31T02:07:21.955Z,99.90
2022-10-31T02:09:50.050Z,99.90
2022-10-31T02:12:18.479Z,99.90
2022-10-31T02:14:45.783Z,99.90
2022-10-31T02:17:12.658Z,99.90
2022-10-31T02:19:55.863Z,99.90
2022-10-31T02:22:27.139Z,99.90
2022-10-31T02:25:18.241Z,99.90
2022-10-31T02:31:11.984Z,99.90
2022-10-31T02:33:54.444Z,99.90
2022-10-31T02:36:32.141Z,99.90
2022-10-31T02:39:16.868Z,99.90
2022-10-31T02:42:04.150Z,99.90
2022-10-31T02:44:54.825Z,99.90
2022-10-31T02:47:40.149Z,99.90
2022-10-31T02:50:32.022Z,99.90
2022-10-31T02:52:58.781Z,99.90
2022-10-31T02:55:28.614Z,99.90
2022-10-31T02:58:02.766Z,99.90
2022-10-31T03:00:39.196Z,99.90
2022-10-31T03:03:20.631Z,99.90
2022-10-31T03:06:08.251Z,99.90
2022-10-31T03:08:43.366Z,99.90
2022-10-31T03:11:10.999Z,99.90
2022-10-31T03:13:45.757Z,99.90
2022-10-31T03:16:31.310Z,99.90
2022-10-31T03:19:03.146Z,99.90
2022-10-31T03:21:56.122Z,99.90
2022-10-31T03:24:26.416Z,99.90
2022-10-31T03:26:55.657Z,99.90
2022-10-31T03:29:26.458Z,99.90
2022-10-31T03:32:00.150Z,99.90
2022-10-31T03:34:27.726Z,99.90
2022-10-31T03:36:58.492Z,99.90
2022-10-31T03:39:26.864Z,99.90
2022-10-31T03:42:03.226Z,99.90
2022-10-31T03:44:32.090Z,99.90
2022-10-31T03:46:59.371Z,99.90
2022-10-31T03:49:26.377Z,99.90
2022-10-31T03:52:07.525Z,99.90
2022-10-31T03:54:45.142Z,99.90
2022-10-31T03:57:25.349Z,99.90
2022-10-31T03:59:58.388Z,99.90
2022-10-31T04:02:29.425Z,99.90
2022-10-31T04:04:57.543Z,99.90
2022-10-31T04:07:29.392Z,99.90
2022-10-31T04:09:57.645Z,99.90
2022-10-31T04:12:26.368Z,99.90
2022-10-31T04:14:55.134Z,99.90
2022-10-31T04:17:24.606Z,99.90
2022-10-31T04:19:51.310Z,99.90
2022-10-31T04:22:18.135Z,99.90
2022-10-31T04:24:44.905Z,99.90
2022-10-31T04:27:12.291Z,99.90
2022-10-31T04:29:38.993Z,99.90
2022-10-31T04:32:05.811Z,99.90
2022-10-31T04:34:32.521Z,99.90
2022-10-31T04:36:59.250Z,99.90
2022-10-31T04:39:26.847Z,99.90
2022-10-31T04:41:53.815Z,99.90
2022-10-31T04:44:20.636Z,99.90
2022-10-31T04:46:47.549Z,99.90
2022-10-31T04:49:14.399Z,99.90
2022-10-31T04:54:08.281Z,99.90
2022-10-31T04:56:35.064Z,99.90
2022-10-31T05:03:56.469Z,99.90
2022-10-31T05:06:23.259Z,99.90
2022-10-31T05:08:50.028Z,99.90
2022-10-31T05:11:16.850Z,99.90
2022-10-31T05:13:43.539Z,99.90
2022-10-31T05:16:10.263Z,99.90
2022-10-31T05:18:37.153Z,99.90
2022-10-31T05:21:04.023Z,99.90
2022-10-31T05:23:30.779Z,99.90
2022-10-31T05:25:57.565Z,99.90
2022-10-31T05:28:24.298Z,99.90
2022-10-31T05:30:51.104Z,99.90
2022-10-31T05:33:17.842Z,99.90
2022-10-31T05:38:11.709Z,99.90
2022-10-31T05:43:05.511Z,99.90
2022-10-31T05:48:01.578Z,99.90
2022-10-31T05:50:30.750Z,99.90
2022-10-31T05:52:57.454Z,99.90
2022-10-31T05:57:53.560Z,99.90
2022-10-31T06:00:21.327Z,99.90
2022-10-31T06:02:48.173Z,99.90
2022-10-31T06:07:42.166Z,99.90
2022-10-31T06:10:10.341Z,99.90
2022-10-31T06:12:38.764Z,99.90
2022-10-31T06:15:09.803Z,99.90
2022-10-31T06:17:37.222Z,99.90
2022-10-31T06:20:05.394Z,99.90
2022-10-31T06:22:32.669Z,99.90
2022-10-31T06:24:59.538Z,99.90
2022-10-31T06:27:26.596Z,99.90
2022-10-31T06:29:53.356Z,99.90
2022-10-31T06:32:20.226Z,99.90
2022-10-31T06:34:50.009Z,99.90
2022-10-31T06:37:17.044Z,99.90
2022-10-31T06:39:43.766Z,99.90
2022-10-31T06:42:10.537Z,99.90
2022-10-31T06:44:37.307Z,99.90
2022-10-31T06:47:04.157Z,99.90
2022-10-31T06:49:30.892Z,99.90
2022-10-31T06:51:57.647Z,99.90
2022-10-31T06:54:26.101Z,99.90
2022-10-31T06:56:55.947Z,99.90
2022-10-31T06:59:22.769Z,99.90
2022-10-31T07:01:49.528Z,99.90
2022-10-31T07:04:16.308Z,99.90
2022-10-31T07:06:44.422Z,99.90
2022-10-31T07:09:12.721Z,99.90
2022-10-31T07:11:39.650Z,99.90
2022-10-31T07:14:06.487Z,99.90
2022-10-31T07:16:33.167Z,99.90
2022-10-31T07:18:59.902Z,99.90
2022-10-31T07:21:26.646Z,99.90
2022-10-31T07:23:53.345Z,99.90
2022-10-31T07:26:20.070Z,99.90
2022-10-31T07:28:48.358Z,99.90
2022-10-31T07:31:15.112Z,99.90
2022-10-31T07:33:41.891Z,99.90
2022-10-31T07:36:08.918Z,99.90
2022-10-31T07:45:57.108Z,99.90
2022-10-31T07:50:51.172Z,99.90
2022-10-31T07:58:14.910Z,99.90
2022-10-31T08:00:43.672Z,99.90
2022-10-31T08:03:16.269Z,99.90
2022-10-31T08:05:45.720Z,99.90
2022-10-31T08:13:13.276Z,99.90
2022-10-31T08:15:42.444Z,99.90
2022-10-31T08:18:15.841Z,99.90
2022-10-31T08:20:43.742Z,99.90
2022-10-31T08:23:11.853Z,99.90
2022-10-31T08:28:09.991Z,99.90
2022-10-31T08:30:38.383Z,99.90
2022-10-31T08:33:06.321Z,99.90
2022-10-31T08:35:34.323Z,99.90
2022-10-31T08:38:02.241Z,99.90
2022-10-31T08:40:31.348Z,99.90
2022-10-31T08:43:22.029Z,99.90
2022-10-31T08:45:50.411Z,99.90
2022-10-31T08:48:18.195Z,99.90
2022-10-31T08:50:46.200Z,99.90
2022-10-31T08:53:15.769Z,99.90
2022-10-31T08:55:44.176Z,99.90
2022-10-31T08:58:13.475Z,99.90
2022-10-31T09:00:40.601Z,99.90
2022-10-31T09:03:11.906Z,99.90
2022-10-31T09:05:38.895Z,99.90
2022-10-31T09:08:08.597Z,99.90
2022-10-31T09:10:38.862Z,99.90
2022-10-31T09:13:08.805Z,99.90
2022-10-31T09:15:39.199Z,99.90
2022-10-31T09:18:07.602Z,99.90
2022-10-31T09:20:36.028Z,99.90
2022-10-31T09:23:15.680Z,99.90
2022-10-31T09:25:47.713Z,99.90
2022-10-31T09:28:18.966Z,99.90
2022-10-31T09:30:48.763Z,99.90
2022-10-31T09:33:15.587Z,99.90
2022-10-31T09:35:42.950Z,99.90
2022-10-31T09:38:13.288Z,99.90
2022-10-31T09:40:45.863Z,99.90
2022-10-31T09:43:20.878Z,99.90
2022-10-31T09:45:54.880Z,99.90
2022-10-31T09:48:30.065Z,99.90
2022-10-31T09:51:01.221Z,99.90
2022-10-31T09:53:50.429Z,99.90
2022-10-31T09:56:21.443Z,99.90
2022-10-31T09:58:54.784Z,99.90
2022-10-31T10:01:27.397Z,99.90
2022-10-31T10:04:00.163Z,99.90
2022-10-31T10:06:29.979Z,99.90
2022-10-31T10:08:57.530Z,99.90
2022-10-31T10:11:42.438Z,99.90
2022-10-31T10:14:41.792Z,99.90
2022-10-31T10:17:36.336Z,99.90
2022-10-31T10:20:24.173Z,99.90
2022-10-31T10:23:00.986Z,99.90
2022-10-31T10:25:41.752Z,99.90
2022-10-31T10:28:12.475Z,99.90
2022-10-31T10:31:15.270Z,99.90
2022-10-31T10:33:55.745Z,99.90
2022-10-31T10:36:39.897Z,99.90
2022-10-31T10:39:17.542Z,99.90
2022-10-31T10:41:48.491Z,99.90
2022-10-31T10:44:16.662Z,99.90
2022-10-31T10:47:22.235Z,99.90
2022-10-31T10:49:53.175Z,99.90
2022-10-31T10:52:51.142Z,99.90
2022-10-31T10:55:30.087Z,99.90
2022-10-31T10:58:03.555Z,99.90
2022-10-31T11:00:37.414Z,99.90
2022-10-31T11:03:05.972Z,99.90
2022-10-31T11:05:42.013Z,99.90
2022-10-31T11:08:09.377Z,99.90
2022-10-31T11:44:29.269Z,70.50
2022-10-31T11:47:03.538Z,64.50
2022-10-31T11:49:37.944Z,63.40
2022-10-31T11:52:29.535Z,62.10
2022-10-31T11:55:00.337Z,64.30
2022-10-31T11:57:33.145Z,65.50
2022-10-31T12:03:25.445Z,65.40
2022-10-31T12:06:21.180Z,66.60
2022-10-31T12:08:47.962Z,67.20
2022-10-31T12:11:39.662Z,72.00
2022-10-31T12:14:35.438Z,73.50
2022-10-31T12:17:26.100Z,77.40
2022-10-31T12:20:19.221Z,86.90
2022-10-31T12:23:07.292Z,90.60
2022-10-31T12:25:59.038Z,92.00
2022-10-31T12:28:34.636Z,92.10
2022-10-31T12:31:13.854Z,91.70
2022-10-31T12:33:58.680Z,92.40
2022-10-31T12:36:50.624Z,91.70
2022-10-31T12:39:32.289Z,92.50
2022-10-31T12:42:17.174Z,91.60
2022-10-31T12:44:50.027Z,91.90
2022-10-31T12:47:35.237Z,90.00
2022-10-31T12:50:20.236Z,86.00
2022-10-31T12:53:14.247Z,79.70
2022-10-31T12:55:49.837Z,76.40
2022-10-31T12:58:25.437Z,75.50
2022-10-31T13:01:11.455Z,71.80
2022-10-31T13:04:04.861Z,72.20
2022-10-31T13:06:42.038Z,71.90
2022-10-31T13:09:16.403Z,74.00
2022-10-31T13:11:56.393Z,76.00
2022-10-31T13:14:34.258Z,75.30
2022-10-31T13:17:02.885Z,74.10
2022-10-31T13:19:32.463Z,74.90
2022-10-31T13:22:10.406Z,76.90
2022-10-31T13:24:45.425Z,79.40
2022-10-31T13:27:34.504Z,79.80
2022-10-31T13:30:03.411Z,84.90
2022-10-31T13:32:45.456Z,87.80
2022-10-31T13:35:22.216Z,92.10
2022-10-31T13:38:06.080Z,93.00
2022-10-31T13:41:04.180Z,95.10
2022-10-31T13:44:05.665Z,95.50
2022-10-31T13:46:40.123Z,97.50
2022-10-31T13:49:25.373Z,98.00
2022-10-31T13:51:55.454Z,98.80
2022-10-31T13:54:22.498Z,98.30
2022-10-31T13:56:53.623Z,97.20
2022-10-31T13:59:29.999Z,96.20
2022-10-31T14:02:02.428Z,93.40
2022-10-31T14:04:32.499Z,91.40
2022-10-31T14:07:05.884Z,90.70
2022-10-31T14:09:37.942Z,90.00
2022-10-31T14:12:29.783Z,89.50
2022-10-31T14:15:06.050Z,89.40
2022-10-31T14:17:47.306Z,91.20
2022-10-31T14:20:17.108Z,91.10
2022-10-31T14:22:44.211Z,92.80
2022-10-31T14:25:35.354Z,93.60
2022-10-31T14:28:31.951Z,94.80
2022-10-31T14:30:59.995Z,97.80
2022-10-31T14:33:29.498Z,98.60
2022-10-31T14:36:10.455Z,99.90
2022-10-31T14:39:01.737Z,99.90
2022-10-31T14:41:37.455Z,99.90
2022-10-31T14:44:30.086Z,99.90
2022-10-31T14:47:23.138Z,99.90
2022-10-31T14:50:26.906Z,99.90
2022-10-31T14:52:57.712Z,99.90
2022-10-31T14:55:26.569Z,99.90
2022-10-31T14:58:05.229Z,99.90
2022-10-31T15:00:33.972Z,99.90
2022-10-31T15:03:13.278Z,99.90
2022-10-31T15:06:02.447Z,99.90
2022-10-31T15:08:39.116Z,99.90
2022-10-31T15:11:17.748Z,99.90
2022-10-31T15:13:56.120Z,99.90
2022-10-31T15:16:27.080Z,99.90
2022-10-31T15:19:04.815Z,99.90
2022-10-31T15:21:32.272Z,99.90
2022-10-31T15:24:01.133Z,99.90
2022-10-31T15:26:36.411Z,99.90
2022-10-31T15:29:06.123Z,99.90
2022-10-31T15:31:33.675Z,99.90
2022-10-31T15:34:06.395Z,99.90
2022-10-31T15:36:37.434Z,99.90
2022-10-31T15:39:05.499Z,99.90
2022-10-31T15:41:34.947Z,99.90
2022-10-31T15:44:31.786Z,99.90
2022-10-31T15:46:58.483Z,99.90
2022-10-31T15:49:41.796Z,99.90
2022-10-31T15:52:33.481Z,99.90
2022-10-31T15:55:03.967Z,99.90
2022-10-31T15:57:32.009Z,99.90
2022-10-31T15:59:59.306Z,99.90
2022-10-31T16:02:28.195Z,99.90
2022-10-31T16:05:20.833Z,99.90
2022-10-31T16:07:52.879Z,99.90
2022-10-31T16:10:27.546Z,99.90
2022-10-31T16:12:54.905Z,99.90
2022-10-31T16:15:22.359Z,99.90
2022-10-31T16:17:51.787Z,99.90
2022-10-31T16:20:32.977Z,99.90
2022-10-31T16:23:02.536Z,99.90
2022-10-31T16:25:39.132Z,99.90
2022-10-31T16:30:48.384Z,99.90
2022-10-31T16:33:37.800Z,99.90
2022-10-31T16:36:35.872Z,99.90
2022-10-31T16:39:06.172Z,99.90
2022-10-31T16:41:36.943Z,99.90
2022-10-31T16:44:07.538Z,99.90
2022-10-31T16:46:34.268Z,99.90
2022-10-31T16:49:01.845Z,99.90
2022-10-31T16:51:28.916Z,99.90
2022-10-31T16:53:56.180Z,99.90
2022-10-31T16:56:34.344Z,99.90
2022-10-31T17:01:53.883Z,99.90
2022-10-31T17:04:20.858Z,99.90
2022-10-31T17:06:49.402Z,99.90
2022-10-31T17:09:18.349Z,99.90
2022-10-31T17:11:52.780Z,99.90
2022-10-31T17:14:20.673Z,99.90
2022-10-31T17:16:47.570Z,99.90
2022-10-31T17:19:18.821Z,99.90
2022-10-31T17:21:45.725Z,99.90
2022-10-31T17:24:23.406Z,99.90
2022-10-31T17:26:52.197Z,99.90
2022-10-31T17:29:19.196Z,99.90
2022-10-31T17:31:48.091Z,99.90
2022-10-31T17:34:14.931Z,99.90
2022-10-31T17:36:43.491Z,99.90
2022-10-31T17:39:11.377Z,99.90
2022-10-31T17:44:19.974Z,99.90
2022-10-31T17:46:47.508Z,99.90
2022-10-31T17:49:22.788Z,99.90
2022-10-31T17:54:22.721Z,99.90
2022-10-31T17:56:49.512Z,99.90
2022-10-31T17:59:17.256Z,99.90
2022-10-31T18:04:28.797Z,99.90
2022-10-31T18:06:56.680Z,99.90
2022-10-31T18:09:24.418Z,99.90
2022-10-31T18:11:52.030Z,99.90
2022-10-31T18:14:18.818Z,99.90
2022-10-31T18:16:47.387Z,99.90
2022-10-31T18:19:16.522Z,99.90
2022-10-31T18:21:48.041Z,99.90
2022-10-31T18:24:16.988Z,99.90
2022-10-31T18:26:45.890Z,99.90
2022-10-31T18:29:12.801Z,99.90
2022-10-31T18:31:39.752Z,99.90
2022-10-31T18:34:06.488Z,99.90
2022-10-31T18:36:33.387Z,99.90
2022-10-31T18:39:00.877Z,99.90
2022-10-31T18:41:27.638Z,99.90
2022-10-31T18:44:14.344Z,99.90
2022-10-31T18:46:41.291Z,99.90
2022-10-31T18:49:10.595Z,99.90
2022-10-31T18:51:37.416Z,99.90
2022-10-31T18:54:04.505Z,99.90
2022-10-31T18:56:31.779Z,99.90
2022-10-31T18:59:04.677Z,99.90
2022-10-31T19:01:31.661Z,99.90
2022-10-31T19:06:42.327Z,99.90
2022-10-31T19:09:09.984Z,99.90
2022-10-31T19:11:38.349Z,99.90
2022-10-31T19:14:08.172Z,99.90
2022-10-31T19:16:35.405Z,99.90
2022-10-31T19:19:02.328Z,99.90
2022-10-31T19:21:31.146Z,99.90
2022-10-31T19:23:59.231Z,99.90
2022-10-31T19:26:27.313Z,99.90
2022-10-31T19:28:55.953Z,99.90
2022-10-31T19:31:23.059Z,99.90
2022-10-31T19:33:49.887Z,99.90
2022-10-31T19:36:18.741Z,99.90
2022-10-31T19:38:47.785Z,99.90
2022-10-31T19:41:18.074Z,99.90
2022-10-31T19:43:45.046Z,99.90
2022-10-31T19:46:22.184Z,99.90
2022-10-31T19:48:55.226Z,99.90
2022-10-31T19:51:22.554Z,99.90
2022-10-31T19:53:52.494Z,99.90
2022-10-31T19:56:25.068Z,99.90
2022-10-31T19:58:52.061Z,99.90
2022-10-31T20:01:22.164Z,99.90
2022-10-31T20:03:49.624Z,99.90
2022-10-31T20:06:24.303Z,99.90
2022-10-31T20:08:52.404Z,99.90
2022-10-31T20:11:19.203Z,99.90
2022-10-31T20:13:46.073Z,99.90
2022-10-31T20:16:13.998Z,99.90
2022-10-31T20:18:41.507Z,99.90
2022-10-31T20:21:14.387Z,99.90
2022-10-31T20:23:41.425Z,99.90
2022-10-31T20:26:13.238Z,99.90
2022-10-31T20:28:43.323Z,99.90
2022-10-31T20:31:16.919Z,99.90
2022-10-31T20:33:43.814Z,99.90
2022-10-31T20:36:10.855Z,99.90
2022-10-31T20:38:39.359Z,99.90
2022-10-31T20:41:07.969Z,99.90
2022-10-31T20:43:35.072Z,99.90
2022-10-31T20:46:02.360Z,99.90
2022-10-31T20:48:30.249Z,99.90
2022-10-31T20:51:02.390Z,99.90
2022-10-31T20:53:29.412Z,99.90
2022-10-31T20:56:07.691Z,99.90
2022-10-31T20:58:35.817Z,99.90
2022-10-31T21:01:02.836Z,99.90
2022-10-31T21:03:29.878Z,99.90
2022-10-31T21:05:58.695Z,99.90
2022-10-31T21:08:26.751Z,99.90
2022-10-31T21:10:54.513Z,99.90
2022-10-31T21:13:21.857Z,99.90
2022-10-31T21:15:59.060Z,99.90
2022-10-31T21:18:25.815Z,99.90
2022-10-31T21:20:52.691Z,99.90
2022-10-31T21:23:19.472Z,99.90
2022-10-31T21:25:46.397Z,99.90
2022-10-31T21:28:13.505Z,99.90
2022-10-31T21:30:42.403Z,99.90
2022-10-31T21:33:09.477Z,99.90
2022-10-31T21:38:04.588Z,99.90
2022-10-31T21:40:31.914Z,99.90
2022-10-31T21:42:59.167Z,99.90
2022-10-31T21:45:26.452Z,99.90
2022-10-31T21:47:53.443Z,99.90
2022-10-31T21:50:20.671Z,99.90
2022-10-31T21:52:47.552Z,99.90
2022-10-31T21:55:14.329Z,99.90
2022-10-31T21:57:41.123Z,99.90
2022-10-31T22:00:10.088Z,99.90
2022-10-31T22:02:37.449Z,99.90
2022-10-31T22:05:08.473Z,99.90
2022-10-31T22:07:35.373Z,99.90
2022-10-31T22:10:03.241Z,99.90
2022-10-31T22:12:29.942Z,99.90
2022-10-31T22:14:56.711Z,99.90
2022-10-31T22:17:23.490Z,99.90
2022-10-31T22:19:50.246Z,99.90
2022-10-31T22:22:17.016Z,99.90
2022-10-31T22:24:43.795Z,99.90
2022-10-31T22:27:13.468Z,99.90
2022-10-31T22:29:40.227Z,99.90
2022-10-31T22:32:07.013Z,99.90
2022-10-31T22:34:39.967Z,99.90
2022-10-31T22:37:06.636Z,99.90
2022-10-31T22:39:33.493Z,99.90
2022-10-31T22:42:00.250Z,99.90
2022-10-31T22:44:30.015Z,99.90
2022-10-31T22:46:56.790Z,99.90
2022-10-31T22:49:23.732Z,99.90
2022-10-31T22:51:55.782Z,99.90
2022-10-31T22:54:22.581Z,99.90
2022-10-31T22:56:52.341Z,99.90
2022-10-31T22:59:19.329Z,99.90
2022-10-31T23:01:48.194Z,99.90
2022-10-31T23:04:35.674Z,99.90
2022-10-31T23:07:03.102Z,99.90
2022-10-31T23:09:30.059Z,99.90
2022-10-31T23:12:21.824Z,99.90
2022-10-31T23:14:48.844Z,99.90
2022-10-31T23:17:17.694Z,99.90
2022-10-31T23:19:45.761Z,99.90
2022-10-31T23:22:13.115Z,99.90
2022-10-31T23:24:45.711Z,99.90
2022-10-31T23:27:37.160Z,99.90
2022-10-31T23:30:05.615Z,99.90
2022-10-31T23:32:37.556Z,99.90
2022-10-31T23:35:09.892Z,99.90
2022-10-31T23:37:38.566Z,99.90
2022-10-31T23:40:08.138Z,99.90
2022-10-31T23:42:35.190Z,99.90
2022-10-31T23:45:01.981Z,99.90
2022-10-31T23:47:28.691Z,99.90
2022-10-31T23:49:55.426Z,99.90
2022-10-31T23:52:22.273Z,99.90
2022-10-31T23:54:49.080Z,99.90
2022-10-31T23:57:16.809Z,99.90
2022-10-31T23:59:46.726Z,99.90
